Time,TemperatureF,DewpointF,PressureIn,WindDirection,WindDirectionDegrees,WindSpeedMPH,WindSpeedGustMPH,Humidity,HourlyPrecipIn,Conditions,Clouds,dailyrainin,SolarRadiationWatts/m^2,SoftwareType,DateUTC
2013-09-27 00:01:00,59.8,56.2,30.04,SE,134,0.0,0.0,88,0.00,,,0.00,0,Wunderground v.1.15,2013-09-27 04:01:00,
2013-09-27 00:06:00,59.8,56.6,30.04,SE,134,0.0,0.0,89,0.00,,,0.00,0,Wunderground v.1.15,2013-09-27 04:06:00,
2013-09-27 00:11:00,60.0,56.7,30.04,SE,134,0.0,0.0,89,0.00,,,0.00,0,Wunderground v.1.15,2013-09-27 04:11:00,
2013-09-27 00:16:00,60.0,56.4,30.05,SE,134,0.0,0.0,88,0.00,,,0.00,0,Wunderground v.1.15,2013-09-27 04:16:00,
2013-09-27 00:21:00,60.1,56.5,30.04,SE,134,0.0,0.0,88,0.00,,,0.00,0,Wunderground v.1.15,2013-09-27 04:21:00,
2013-09-27 00:26:00,60.0,56.1,30.04,SE,134,0.0,0.0,87,0.00,,,0.00,0,Wunderground v.1.15,2013-09-27 04:26:00,
2013-09-27 00:31:00,59.6,56.0,30.05,SE,134,0.0,0.0,88,0.00,,,0.00,0,Wunderground v.1.15,2013-09-27 04:31:00,
2013-09-27 00:36:00,59.5,56.3,30.04,SE,134,0.0,0.0,89,0.00,,,0.00,0,Wunderground v.1.15,2013-09-27 04:36:00,
2013-09-27 00:41:00,59.3,56.1,30.04,SE,134,0.0,1.0,89,0.00,,,0.00,0,Wunderground v.1.15,2013-09-27 04:41:00,
2013-09-27 00:46:00,59.0,55.8,30.04,SE,134,0.0,2.0,89,0.00,,,0.00,0,Wunderground v.1.15,2013-09-27 04:46:00,
2013-09-27 00:51:00,58.9,55.7,30.04,SE,134,0.0,0.0,89,0.00,,,0.00,0,Wunderground v.1.15,2013-09-27 04:51:00,
2013-09-27 00:56:00,58.7,55.5,30.04,SE,134,0.0,0.0,89,0.00,,,0.00,0,Wunderground v.1.15,2013-09-27 04:56:00,
2013-09-27 01:01:00,58.4,55.2,30.05,SE,134,0.0,0.0,89,0.00,,,0.00,0,Wunderground v.1.15,2013-09-27 05:01:00,
2013-09-27 01:07:00,57.8,54.9,30.05,SE,134,0.0,0.0,90,0.00,,,0.00,0,Wunderground v.1.15,2013-09-27 05:07:00,
2013-09-27 01:12:00,57.6,54.7,30.05,SE,134,0.0,0.0,90,0.00,,,0.00,0,Wunderground v.1.15,2013-09-27 05:12:00,
2013-09-27 01:17:00,57.6,54.7,30.05,SE,134,0.0,0.0,90,0.00,,,0.00,0,Wunderground v.1.15,2013-09-27 05:17:00,
2013-09-27 01:22:00,57.6,54.7,30.05,SE,134,0.0,0.0,90,0.00,,,0.00,0,Wunderground v.1.15,2013-09-27 05:22:00,
2013-09-27 01:27:00,57.5,54.9,30.05,SE,134,0.0,0.0,91,0.00,,,0.00,0,Wunderground v.1.15,2013-09-27 05:27:00,
2013-09-27 01:32:00,57.4,54.8,30.05,SE,134,0.0,0.0,91,0.00,,,0.00,0,Wunderground v.1.15,2013-09-27 05:32:00,
2013-09-27 01:37:00,57.3,55.0,30.05,SE,134,0.0,0.0,92,0.00,,,0.00,0,Wunderground v.1.15,2013-09-27 05:37:00,
2013-09-27 01:42:00,57.4,55.1,30.05,SE,134,0.0,0.0,92,0.00,,,0.00,0,Wunderground v.1.15,2013-09-27 05:42:00,
2013-09-27 01:47:00,57.3,55.0,30.05,SE,134,0.0,0.0,92,0.00,,,0.00,0,Wunderground v.1.15,2013-09-27 05:47:00,
2013-09-27 01:52:00,57.2,54.9,30.05,SE,134,0.0,0.0,92,0.00,,,0.00,0,Wunderground v.1.15,2013-09-27 05:52:00,
2013-09-27 01:57:00,57.2,54.9,30.05,SE,134,0.0,0.0,92,0.00,,,0.00,0,Wunderground v.1.15,2013-09-27 05:57:00,
2013-09-27 02:02:00,57.3,55.0,30.05,SE,134,0.0,0.0,92,0.00,,,0.00,0,Wunderground v.1.15,2013-09-27 06:02:00,
2013-09-27 02:07:00,57.4,55.1,30.05,SE,134,0.0,0.0,92,0.00,,,0.00,0,Wunderground v.1.15,2013-09-27 06:07:00,
2013-09-27 02:12:00,57.3,55.0,30.05,SE,134,0.0,0.0,92,0.00,,,0.00,0,Wunderground v.1.15,2013-09-27 06:12:00,
2013-09-27 02:17:00,57.1,54.8,30.05,SE,134,0.0,0.0,92,0.00,,,0.00,0,Wunderground v.1.15,2013-09-27 06:17:00,
2013-09-27 02:22:00,56.9,54.6,30.05,SE,134,0.0,0.0,92,0.00,,,0.00,0,Wunderground v.1.15,2013-09-27 06:22:00,
2013-09-27 02:27:00,56.8,54.5,30.05,SE,134,0.0,0.0,92,0.00,,,0.00,0,Wunderground v.1.15,2013-09-27 06:27:00,
2013-09-27 02:32:00,56.8,54.5,30.05,SE,134,0.0,0.0,92,0.00,,,0.00,0,Wunderground v.1.15,2013-09-27 06:32:00,
2013-09-27 02:37:00,56.8,54.8,30.05,SE,134,0.0,0.0,93,0.00,,,0.00,0,Wunderground v.1.15,2013-09-27 06:37:00,
2013-09-27 02:42:00,56.8,54.8,30.05,SE,134,0.0,0.0,93,0.00,,,0.00,0,Wunderground v.1.15,2013-09-27 06:42:00,
2013-09-27 02:47:00,56.7,54.7,30.06,SE,134,0.0,0.0,93,0.00,,,0.00,0,Wunderground v.1.15,2013-09-27 06:47:00,
2013-09-27 02:52:00,56.6,54.6,30.06,SE,134,0.0,0.0,93,0.00,,,0.00,0,Wunderground v.1.15,2013-09-27 06:52:00,
2013-09-27 02:57:00,56.5,54.5,30.06,SE,134,0.0,1.0,93,0.00,,,0.00,0,Wunderground v.1.15,2013-09-27 06:57:00,
2013-09-27 03:02:00,56.5,54.5,30.06,SE,134,0.0,1.0,93,0.00,,,0.00,0,Wunderground v.1.15,2013-09-27 07:02:00,
2013-09-27 03:07:00,56.4,54.1,30.05,SE,134,0.0,1.0,92,0.00,,,0.00,0,Wunderground v.1.15,2013-09-27 07:07:00,
2013-09-27 03:12:00,56.2,53.9,30.05,SE,134,0.0,0.0,92,0.00,,,0.00,0,Wunderground v.1.15,2013-09-27 07:12:00,
2013-09-27 03:17:00,56.0,53.7,30.05,SE,134,0.0,0.0,92,0.00,,,0.00,0,Wunderground v.1.15,2013-09-27 07:17:00,
2013-09-27 03:22:00,56.1,53.8,30.05,SE,134,0.0,0.0,92,0.00,,,0.00,0,Wunderground v.1.15,2013-09-27 07:22:00,
2013-09-27 03:27:00,56.0,53.7,30.05,SE,134,0.0,0.0,92,0.00,,,0.00,0,Wunderground v.1.15,2013-09-27 07:27:00,
2013-09-27 03:32:00,56.0,53.7,30.05,SE,134,0.0,0.0,92,0.00,,,0.00,0,Wunderground v.1.15,2013-09-27 07:32:00,
2013-09-27 03:37:00,55.9,53.3,30.05,SE,134,0.0,0.0,91,0.00,,,0.00,0,Wunderground v.1.15,2013-09-27 07:37:00,
2013-09-27 03:42:00,55.7,53.1,30.05,SE,134,0.0,0.0,91,0.00,,,0.00,0,Wunderground v.1.15,2013-09-27 07:42:00,
2013-09-27 03:47:00,55.5,53.2,30.05,SE,134,0.0,0.0,92,0.00,,,0.00,0,Wunderground v.1.15,2013-09-27 07:47:00,
2013-09-27 03:49:00,55.4,53.1,30.05,SE,134,0.0,0.0,92,0.00,,,0.00,0,Wunderground v.1.15,2013-09-27 07:49:00,
2013-09-27 03:54:00,55.3,53.0,30.05,SE,134,0.0,0.0,92,0.00,,,0.00,0,Wunderground v.1.15,2013-09-27 07:54:00,
2013-09-27 03:59:00,55.2,52.9,30.05,SE,134,0.0,0.0,92,0.00,,,0.00,0,Wunderground v.1.15,2013-09-27 07:59:00,
2013-09-27 04:04:00,55.1,52.8,30.05,SE,134,0.0,0.0,92,0.00,,,0.00,0,Wunderground v.1.15,2013-09-27 08:04:00,
2013-09-27 04:09:00,55.1,53.1,30.05,SE,134,0.0,0.0,93,0.00,,,0.00,0,Wunderground v.1.15,2013-09-27 08:09:00,
2013-09-27 04:14:00,55.2,53.2,30.05,SE,134,0.0,0.0,93,0.00,,,0.00,0,Wunderground v.1.15,2013-09-27 08:14:00,
2013-09-27 04:19:00,55.3,53.0,30.05,SE,134,0.0,1.0,92,0.00,,,0.00,0,Wunderground v.1.15,2013-09-27 08:19:00,
2013-09-27 04:24:00,55.0,52.7,30.05,SE,134,0.0,1.0,92,0.00,,,0.00,0,Wunderground v.1.15,2013-09-27 08:24:00,
2013-09-27 04:29:00,54.9,52.6,30.05,SE,134,0.0,0.0,92,0.00,,,0.00,0,Wunderground v.1.15,2013-09-27 08:29:00,
2013-09-27 04:34:00,54.6,52.3,30.05,SE,134,0.0,0.0,92,0.00,,,0.00,0,Wunderground v.1.15,2013-09-27 08:34:00,
2013-09-27 04:39:00,54.5,52.5,30.06,SE,134,0.0,0.0,93,0.00,,,0.00,0,Wunderground v.1.15,2013-09-27 08:39:00,
2013-09-27 04:44:00,54.4,52.4,30.06,SE,134,0.0,0.0,93,0.00,,,0.00,0,Wunderground v.1.15,2013-09-27 08:44:00,
2013-09-27 04:49:00,54.4,52.4,30.06,SE,134,0.0,1.0,93,0.00,,,0.00,0,Wunderground v.1.15,2013-09-27 08:49:00,
2013-09-27 04:54:00,54.2,52.2,30.06,SE,134,0.0,1.0,93,0.00,,,0.00,0,Wunderground v.1.15,2013-09-27 08:54:00,
2013-09-27 04:59:00,54.2,52.2,30.06,SE,134,0.0,0.0,93,0.00,,,0.00,0,Wunderground v.1.15,2013-09-27 08:59:00,
2013-09-27 05:04:00,54.1,52.1,30.06,SE,134,0.0,0.0,93,0.00,,,0.00,0,Wunderground v.1.15,2013-09-27 09:04:00,
2013-09-27 05:09:00,53.8,51.8,30.06,SE,134,0.0,0.0,93,0.00,,,0.00,0,Wunderground v.1.15,2013-09-27 09:09:00,
2013-09-27 05:14:00,53.8,51.8,30.06,SE,134,0.0,0.0,93,0.00,,,0.00,0,Wunderground v.1.15,2013-09-27 09:14:00,
2013-09-27 05:19:00,53.7,51.7,30.06,SE,134,0.0,0.0,93,0.00,,,0.00,0,Wunderground v.1.15,2013-09-27 09:19:00,
2013-09-27 05:24:00,54.0,52.0,30.07,SE,134,0.0,0.0,93,0.00,,,0.00,0,Wunderground v.1.15,2013-09-27 09:24:00,
2013-09-27 05:29:00,54.1,52.1,30.07,SE,134,0.0,0.0,93,0.00,,,0.00,0,Wunderground v.1.15,2013-09-27 09:29:00,
2013-09-27 05:34:00,54.0,52.0,30.07,SE,134,0.0,0.0,93,0.00,,,0.00,0,Wunderground v.1.15,2013-09-27 09:34:00,
2013-09-27 05:39:00,54.0,52.0,30.07,SE,134,0.0,1.0,93,0.00,,,0.00,0,Wunderground v.1.15,2013-09-27 09:39:00,
2013-09-27 05:44:00,54.1,52.1,30.07,SE,134,0.0,1.0,93,0.00,,,0.00,0,Wunderground v.1.15,2013-09-27 09:44:00,
2013-09-27 05:49:00,54.0,52.0,30.07,SE,134,0.0,0.0,93,0.00,,,0.00,0,Wunderground v.1.15,2013-09-27 09:49:00,
2013-09-27 05:54:00,53.9,51.9,30.07,SE,134,0.0,0.0,93,0.00,,,0.00,0,Wunderground v.1.15,2013-09-27 09:54:00,
2013-09-27 05:59:00,53.9,51.9,30.08,SE,134,0.0,0.0,93,0.00,,,0.00,0,Wunderground v.1.15,2013-09-27 09:59:00,
2013-09-27 06:04:00,53.6,51.6,30.08,SE,134,0.0,0.0,93,0.00,,,0.00,0,Wunderground v.1.15,2013-09-27 10:04:00,
2013-09-27 06:09:00,53.4,51.4,30.08,SE,134,0.0,0.0,93,0.00,,,0.00,0,Wunderground v.1.15,2013-09-27 10:09:00,
2013-09-27 06:14:00,53.4,51.4,30.08,SE,134,0.0,0.0,93,0.00,,,0.00,0,Wunderground v.1.15,2013-09-27 10:14:00,
2013-09-27 06:19:00,53.4,51.4,30.08,SE,134,0.0,0.0,93,0.00,,,0.00,0,Wunderground v.1.15,2013-09-27 10:19:00,
2013-09-27 06:24:00,53.3,51.3,30.08,SE,134,0.0,0.0,93,0.00,,,0.00,0,Wunderground v.1.15,2013-09-27 10:24:00,
2013-09-27 06:29:00,53.2,51.2,30.09,SE,134,0.0,0.0,93,0.00,,,0.00,0,Wunderground v.1.15,2013-09-27 10:29:00,
2013-09-27 06:34:00,53.2,51.2,30.09,SE,134,0.0,0.0,93,0.00,,,0.00,0,Wunderground v.1.15,2013-09-27 10:34:00,
2013-09-27 06:39:00,53.3,51.3,30.09,SE,134,0.0,0.0,93,0.00,,,0.00,0,Wunderground v.1.15,2013-09-27 10:39:00,
2013-09-27 06:44:00,53.3,51.3,30.09,SE,134,0.0,0.0,93,0.00,,,0.00,0,Wunderground v.1.15,2013-09-27 10:44:00,
2013-09-27 06:49:00,53.1,51.1,30.10,SE,134,0.0,0.0,93,0.00,,,0.00,0,Wunderground v.1.15,2013-09-27 10:49:00,
2013-09-27 06:54:00,53.1,51.1,30.10,SE,134,0.0,0.0,93,0.00,,,0.00,0,Wunderground v.1.15,2013-09-27 10:54:00,
2013-09-27 06:59:00,53.0,51.0,30.10,SE,134,0.0,0.0,93,0.00,,,0.00,0,Wunderground v.1.15,2013-09-27 10:59:00,
2013-09-27 07:04:00,53.0,50.7,30.10,SE,134,0.0,0.0,92,0.00,,,0.00,0,Wunderground v.1.15,2013-09-27 11:04:00,
2013-09-27 07:09:00,52.8,50.8,30.10,SE,134,0.0,0.0,93,0.00,,,0.00,0,Wunderground v.1.15,2013-09-27 11:09:00,
2013-09-27 07:14:00,52.9,50.9,30.10,SE,134,0.0,0.0,93,0.00,,,0.00,0,Wunderground v.1.15,2013-09-27 11:14:00,
2013-09-27 07:19:00,53.0,51.0,30.11,SE,134,0.0,0.0,93,0.00,,,0.00,0,Wunderground v.1.15,2013-09-27 11:19:00,
2013-09-27 07:24:00,52.8,50.8,30.11,SE,134,0.0,0.0,93,0.00,,,0.00,0,Wunderground v.1.15,2013-09-27 11:24:00,
2013-09-27 07:29:00,52.9,50.9,30.11,SE,134,0.0,0.0,93,0.00,,,0.00,0,Wunderground v.1.15,2013-09-27 11:29:00,
2013-09-27 07:34:00,52.9,50.9,30.11,SE,134,0.0,0.0,93,0.00,,,0.00,5,Wunderground v.1.15,2013-09-27 11:34:00,
2013-09-27 07:39:00,52.9,50.9,30.11,SE,134,0.0,0.0,93,0.00,,,0.00,9,Wunderground v.1.15,2013-09-27 11:39:00,
2013-09-27 07:44:00,52.8,50.5,30.11,SE,134,0.0,0.0,92,0.00,,,0.00,14,Wunderground v.1.15,2013-09-27 11:44:00,
2013-09-27 07:49:00,53.0,51.0,30.12,SE,134,0.0,0.0,93,0.00,,,0.00,19,Wunderground v.1.15,2013-09-27 11:49:00,
2013-09-27 07:54:00,53.4,51.1,30.12,SE,134,0.0,0.0,92,0.00,,,0.00,28,Wunderground v.1.15,2013-09-27 11:54:00,
2013-09-27 07:59:00,53.6,51.3,30.12,SE,134,0.0,0.0,92,0.00,,,0.00,47,Wunderground v.1.15,2013-09-27 11:59:00,
2013-09-27 08:04:00,54.2,51.9,30.12,SE,134,0.0,0.0,92,0.00,,,0.00,62,Wunderground v.1.15,2013-09-27 12:04:00,
2013-09-27 08:09:00,54.1,51.8,30.12,SE,134,0.0,0.0,92,0.00,,,0.00,74,Wunderground v.1.15,2013-09-27 12:09:00,
2013-09-27 08:14:00,54.6,52.6,30.13,SE,134,0.0,0.0,93,0.00,,,0.00,90,Wunderground v.1.15,2013-09-27 12:14:00,
2013-09-27 08:19:00,55.4,52.8,30.13,SE,134,0.0,0.0,91,0.00,,,0.00,109,Wunderground v.1.15,2013-09-27 12:19:00,
2013-09-27 08:24:00,55.8,53.2,30.13,SE,134,0.0,0.0,91,0.00,,,0.00,128,Wunderground v.1.15,2013-09-27 12:24:00,
2013-09-27 08:29:00,56.2,53.3,30.13,SE,134,0.0,1.0,90,0.00,,,0.00,141,Wunderground v.1.15,2013-09-27 12:29:00,
2013-09-27 08:34:00,56.1,53.5,30.13,SE,134,0.0,1.0,91,0.00,,,0.00,160,Wunderground v.1.15,2013-09-27 12:34:00,
2013-09-27 08:39:00,56.6,54.0,30.13,SE,134,0.0,1.0,91,0.00,,,0.00,179,Wunderground v.1.15,2013-09-27 12:39:00,
2013-09-27 08:44:00,57.4,54.5,30.13,SE,134,0.0,1.0,90,0.00,,,0.00,200,Wunderground v.1.15,2013-09-27 12:44:00,
2013-09-27 08:50:00,57.7,54.5,30.13,SE,134,1.0,1.0,89,0.00,,,0.00,214,Wunderground v.1.15,2013-09-27 12:50:00,
2013-09-27 08:54:00,58.1,55.2,30.13,SE,134,1.0,2.0,90,0.00,,,0.00,230,Wunderground v.1.15,2013-09-27 12:54:00,
2013-09-27 08:59:00,58.7,55.5,30.13,SE,134,1.0,2.0,89,0.00,,,0.00,246,Wunderground v.1.15,2013-09-27 12:59:00,
2013-09-27 09:05:00,59.7,56.5,30.13,ESE,109,0.0,2.0,89,0.00,,,0.00,264,Wunderground v.1.15,2013-09-27 13:05:00,
2013-09-27 09:10:00,60.2,56.6,30.13,East,89,2.0,3.0,88,0.00,,,0.00,278,Wunderground v.1.15,2013-09-27 13:10:00,
2013-09-27 09:15:00,60.7,57.7,30.13,East,88,5.0,6.0,90,0.00,,,0.00,297,Wunderground v.1.15,2013-09-27 13:15:00,
2013-09-27 09:20:00,61.3,58.3,30.13,East,83,6.0,7.0,90,0.00,,,0.00,313,Wunderground v.1.15,2013-09-27 13:20:00,
2013-09-27 09:25:00,61.6,58.6,30.14,East,96,8.0,8.0,90,0.00,,,0.00,327,Wunderground v.1.15,2013-09-27 13:25:00,
2013-09-27 09:30:00,62.0,59.3,30.14,ESE,109,3.0,5.0,91,0.00,,,0.00,343,Wunderground v.1.15,2013-09-27 13:30:00,
2013-09-27 09:35:00,62.1,59.1,30.14,ESE,115,4.0,8.0,90,0.00,,,0.00,364,Wunderground v.1.15,2013-09-27 13:35:00,
2013-09-27 09:40:00,62.1,58.8,30.14,East,94,6.0,9.0,89,0.00,,,0.00,381,Wunderground v.1.15,2013-09-27 13:40:00,
2013-09-27 09:45:00,62.8,59.5,30.14,East,92,3.0,9.0,89,0.00,,,0.00,399,Wunderground v.1.15,2013-09-27 13:45:00,
2013-09-27 09:50:00,63.5,59.6,30.14,ESE,111,3.0,7.0,87,0.00,,,0.00,413,Wunderground v.1.15,2013-09-27 13:50:00,
2013-09-27 09:55:00,64.2,59.9,30.14,East,88,3.0,7.0,86,0.00,,,0.00,427,Wunderground v.1.15,2013-09-27 13:55:00,
2013-09-27 10:00:00,64.6,60.3,30.15,East,79,5.0,7.0,86,0.00,,,0.00,441,Wunderground v.1.15,2013-09-27 14:00:00,
2013-09-27 10:05:00,65.3,60.3,30.15,East,94,1.0,7.0,84,0.00,,,0.00,459,Wunderground v.1.15,2013-09-27 14:05:00,
2013-09-27 10:10:00,65.9,60.6,30.15,East,88,5.0,5.0,83,0.00,,,0.00,471,Wunderground v.1.15,2013-09-27 14:10:00,
2013-09-27 10:15:00,66.2,60.5,30.15,East,88,3.0,6.0,82,0.00,,,0.00,487,Wunderground v.1.15,2013-09-27 14:15:00,
2013-09-27 10:20:00,66.5,60.8,30.14,SSE,149,3.0,5.0,82,0.00,,,0.00,503,Wunderground v.1.15,2013-09-27 14:20:00,
2013-09-27 10:25:00,66.7,61.4,30.14,ESE,118,2.0,7.0,83,0.00,,,0.00,517,Wunderground v.1.15,2013-09-27 14:25:00,
2013-09-27 10:30:00,66.8,60.4,30.15,SE,126,5.0,7.0,80,0.00,,,0.00,529,Wunderground v.1.15,2013-09-27 14:30:00,
2013-09-27 10:35:00,67.6,61.2,30.15,East,96,5.0,7.0,80,0.00,,,0.00,545,Wunderground v.1.15,2013-09-27 14:35:00,
2013-09-27 10:40:00,68.0,61.2,30.14,East,84,3.0,7.0,79,0.00,,,0.00,566,Wunderground v.1.15,2013-09-27 14:40:00,
2013-09-27 10:45:00,68.5,61.7,30.14,East,83,3.0,7.0,79,0.00,,,0.00,582,Wunderground v.1.15,2013-09-27 14:45:00,
2013-09-27 10:50:00,68.7,61.6,30.14,East,82,3.0,6.0,78,0.00,,,0.00,584,Wunderground v.1.15,2013-09-27 14:50:00,
2013-09-27 10:55:00,69.6,62.1,30.14,SE,126,3.0,6.0,77,0.00,,,0.00,596,Wunderground v.1.15,2013-09-27 14:55:00,
2013-09-27 11:00:00,70.1,62.6,30.14,East,94,3.0,4.0,77,0.00,,,0.00,606,Wunderground v.1.15,2013-09-27 15:00:00,
2013-09-27 11:05:00,70.3,61.6,30.14,ENE,70,3.0,5.0,74,0.00,,,0.00,621,Wunderground v.1.15,2013-09-27 15:05:00,
2013-09-27 11:10:00,70.9,61.8,30.14,SE,140,4.0,7.0,73,0.00,,,0.00,635,Wunderground v.1.15,2013-09-27 15:10:00,
2013-09-27 11:15:00,71.5,62.8,30.14,ESE,113,2.0,7.0,74,0.00,,,0.00,647,Wunderground v.1.15,2013-09-27 15:15:00,
2013-09-27 11:20:00,71.4,61.1,30.14,SE,139,6.0,7.0,70,0.00,,,0.00,657,Wunderground v.1.15,2013-09-27 15:20:00,
2013-09-27 11:25:00,71.4,61.1,30.14,ESE,111,4.0,9.0,70,0.00,,,0.00,664,Wunderground v.1.15,2013-09-27 15:25:00,
2013-09-27 11:30:00,72.0,61.3,30.14,SSE,155,5.0,8.0,69,0.00,,,0.00,677,Wunderground v.1.15,2013-09-27 15:30:00,
2013-09-27 11:35:00,72.1,60.5,30.14,ESE,117,0.0,8.0,67,0.00,,,0.00,687,Wunderground v.1.15,2013-09-27 15:35:00,
2013-09-27 11:40:00,72.8,62.0,30.14,SSW,192,4.0,7.0,69,0.00,,,0.00,687,Wunderground v.1.15,2013-09-27 15:40:00,
2013-09-27 11:45:00,73.4,61.3,30.14,ESE,123,5.0,9.0,66,0.00,,,0.00,703,Wunderground v.1.15,2013-09-27 15:45:00,
2013-09-27 11:50:00,73.0,61.0,30.14,SSW,210,4.0,5.0,66,0.00,,,0.00,710,Wunderground v.1.15,2013-09-27 15:50:00,
2013-09-27 11:55:00,73.5,59.7,30.14,SE,137,4.0,8.0,62,0.00,,,0.00,726,Wunderground v.1.15,2013-09-27 15:55:00,
2013-09-27 12:00:00,73.0,59.2,30.14,SSE,152,5.0,9.0,62,0.00,,,0.00,733,Wunderground v.1.15,2013-09-27 16:00:00,
2013-09-27 12:05:00,73.3,60.4,30.14,East,94,6.0,9.0,64,0.00,,,0.00,737,Wunderground v.1.15,2013-09-27 16:05:00,
2013-09-27 12:10:00,73.5,59.7,30.14,ESE,102,5.0,7.0,62,0.00,,,0.00,749,Wunderground v.1.15,2013-09-27 16:10:00,
2013-09-27 12:15:00,73.8,59.5,30.14,ESE,121,4.0,8.0,61,0.00,,,0.00,752,Wunderground v.1.15,2013-09-27 16:15:00,
2013-09-27 12:20:00,74.1,59.3,30.14,East,92,0.0,6.0,60,0.00,,,0.00,766,Wunderground v.1.15,2013-09-27 16:20:00,
2013-09-27 12:25:00,74.3,58.6,30.14,ENE,77,5.0,9.0,58,0.00,,,0.00,766,Wunderground v.1.15,2013-09-27 16:25:00,
2013-09-27 12:30:00,74.2,58.5,30.14,SE,138,5.0,7.0,58,0.00,,,0.00,777,Wunderground v.1.15,2013-09-27 16:30:00,
2013-09-27 12:35:00,74.6,58.8,30.13,East,86,7.0,8.0,58,0.00,,,0.00,770,Wunderground v.1.15,2013-09-27 16:35:00,
2013-09-27 12:40:00,74.7,59.4,30.13,ESE,118,4.0,5.0,59,0.00,,,0.00,789,Wunderground v.1.15,2013-09-27 16:40:00,
2013-09-27 12:45:00,74.8,60.0,30.13,SSW,199,5.0,7.0,60,0.00,,,0.00,788,Wunderground v.1.15,2013-09-27 16:45:00,
2013-09-27 12:50:00,75.5,58.2,30.13,SSE,152,3.0,8.0,55,0.00,,,0.00,795,Wunderground v.1.15,2013-09-27 16:50:00,
2013-09-27 12:55:00,74.9,58.6,30.13,SE,126,2.0,8.0,57,0.00,,,0.00,809,Wunderground v.1.15,2013-09-27 16:55:00,
2013-09-27 13:00:00,75.1,58.3,30.13,East,99,2.0,3.0,56,0.00,,,0.00,816,Wunderground v.1.15,2013-09-27 17:00:00,
2013-09-27 13:05:00,75.0,58.2,30.13,ESE,103,0.0,5.0,56,0.00,,,0.00,814,Wunderground v.1.15,2013-09-27 17:05:00,
2013-09-27 13:10:00,76.7,58.8,30.12,SW,230,5.0,5.0,54,0.00,,,0.00,819,Wunderground v.1.15,2013-09-27 17:10:00,
2013-09-27 13:15:00,76.7,57.2,30.12,SSW,199,0.0,5.0,51,0.00,,,0.00,823,Wunderground v.1.15,2013-09-27 17:15:00,
2013-09-27 13:20:00,76.4,56.9,30.12,SE,144,2.0,10.0,51,0.00,,,0.00,819,Wunderground v.1.15,2013-09-27 17:20:00,
2013-09-27 13:25:00,77.9,58.3,30.12,SW,232,4.0,10.0,51,0.00,,,0.00,807,Wunderground v.1.15,2013-09-27 17:25:00,
2013-09-27 13:26:00,78.3,58.7,30.12,WSW,246,7.0,10.0,51,0.00,,,0.00,805,Wunderground v.1.15,2013-09-27 17:26:00,
2013-09-27 13:31:00,78.8,58.6,30.12,West,277,2.0,6.0,50,0.00,,,0.00,803,Wunderground v.1.15,2013-09-27 17:31:00,
2013-09-27 13:36:00,78.9,57.5,30.11,WNW,284,1.0,6.0,48,0.00,,,0.00,795,Wunderground v.1.15,2013-09-27 17:36:00,
2013-09-27 13:41:00,78.7,59.6,30.11,SSE,162,3.0,6.0,52,0.00,,,0.00,802,Wunderground v.1.15,2013-09-27 17:41:00,
2013-09-27 13:46:00,76.9,58.5,30.11,SW,233,4.0,8.0,53,0.00,,,0.00,809,Wunderground v.1.15,2013-09-27 17:46:00,
2013-09-27 13:51:00,78.8,58.0,30.11,SSW,202,0.0,5.0,49,0.00,,,0.00,809,Wunderground v.1.15,2013-09-27 17:51:00,
2013-09-27 13:56:00,78.4,58.8,30.11,WSW,239,3.0,6.0,51,0.00,,,0.00,795,Wunderground v.1.15,2013-09-27 17:56:00,
2013-09-27 14:02:00,79.2,58.4,30.11,SW,227,3.0,6.0,49,0.00,,,0.00,766,Wunderground v.1.15,2013-09-27 18:02:00,
2013-09-27 14:07:00,79.3,57.9,30.10,WNW,297,5.0,8.0,48,0.00,,,0.00,156,Wunderground v.1.15,2013-09-27 18:07:00,
2013-09-27 14:12:00,78.9,57.5,30.10,WNW,297,2.0,7.0,48,0.00,,,0.00,784,Wunderground v.1.15,2013-09-27 18:12:00,
2013-09-27 14:17:00,79.9,57.9,30.10,WSW,250,4.0,7.0,47,0.00,,,0.00,775,Wunderground v.1.15,2013-09-27 18:17:00,
2013-09-27 14:22:00,79.3,56.7,30.10,South,171,0.0,8.0,46,0.00,,,0.00,779,Wunderground v.1.15,2013-09-27 18:22:00,
2013-09-27 14:27:00,78.6,57.8,30.10,South,171,0.0,8.0,49,0.00,,,0.00,728,Wunderground v.1.15,2013-09-27 18:27:00,
2013-09-27 14:32:00,77.2,57.1,30.10,SE,142,7.0,11.0,50,0.00,,,0.00,763,Wunderground v.1.15,2013-09-27 18:32:00,
2013-09-27 14:37:00,76.7,58.8,30.09,SSE,165,3.0,11.0,54,0.00,,,0.00,740,Wunderground v.1.15,2013-09-27 18:37:00,
2013-09-27 14:42:00,77.4,56.2,30.09,SSW,194,4.0,8.0,48,0.00,,,0.00,740,Wunderground v.1.15,2013-09-27 18:42:00,
2013-09-27 14:47:00,78.9,56.4,30.09,SSW,206,0.0,8.0,46,0.00,,,0.00,738,Wunderground v.1.15,2013-09-27 18:47:00,
2013-09-27 14:52:00,79.2,55.4,30.09,West,267,0.0,4.0,44,0.00,,,0.00,733,Wunderground v.1.15,2013-09-27 18:52:00,
2013-09-27 14:57:00,77.7,55.3,30.09,ENE,65,2.0,7.0,46,0.00,,,0.00,728,Wunderground v.1.15,2013-09-27 18:57:00,
2013-09-27 15:02:00,77.7,56.4,30.09,SSE,154,2.0,4.0,48,0.00,,,0.00,735,Wunderground v.1.15,2013-09-27 19:02:00,
2013-09-27 15:07:00,77.6,56.9,30.09,ESE,113,2.0,8.0,49,0.00,,,0.00,728,Wunderground v.1.15,2013-09-27 19:07:00,
2013-09-27 15:12:00,77.7,56.4,30.09,East,83,2.0,3.0,48,0.00,,,0.00,731,Wunderground v.1.15,2013-09-27 19:12:00,
2013-09-27 15:17:00,79.2,57.8,30.08,NW,322,2.0,3.0,48,0.00,,,0.00,631,Wunderground v.1.15,2013-09-27 19:17:00,
2013-09-27 15:22:00,79.3,57.3,30.08,SW,216,3.0,6.0,47,0.00,,,0.00,691,Wunderground v.1.15,2013-09-27 19:22:00,
2013-09-27 15:27:00,79.6,57.0,30.08,SW,227,1.0,6.0,46,0.00,,,0.00,547,Wunderground v.1.15,2013-09-27 19:27:00,
2013-09-27 15:32:00,78.1,56.8,30.08,SSW,195,2.0,4.0,48,0.00,,,0.00,631,Wunderground v.1.15,2013-09-27 19:32:00,
2013-09-27 15:37:00,79.0,57.6,30.08,SSE,167,1.0,6.0,48,0.00,,,0.00,647,Wunderground v.1.15,2013-09-27 19:37:00,
2013-09-27 15:42:00,78.1,56.8,30.08,South,182,0.0,6.0,48,0.00,,,0.00,613,Wunderground v.1.15,2013-09-27 19:42:00,
2013-09-27 15:47:00,78.0,58.4,30.08,East,96,3.0,8.0,51,0.00,,,0.00,612,Wunderground v.1.15,2013-09-27 19:47:00,
2013-09-27 15:52:00,78.7,57.4,30.07,SW,232,7.0,8.0,48,0.00,,,0.00,529,Wunderground v.1.15,2013-09-27 19:52:00,
2013-09-27 15:57:00,78.9,57.5,30.07,SE,132,1.0,8.0,48,0.00,,,0.00,599,Wunderground v.1.15,2013-09-27 19:57:00,
2013-09-27 16:02:00,78.2,57.5,30.07,SE,142,3.0,3.0,49,0.00,,,0.00,585,Wunderground v.1.15,2013-09-27 20:02:00,
2013-09-27 16:07:00,78.0,56.7,30.07,ENE,73,5.0,5.0,48,0.00,,,0.00,582,Wunderground v.1.15,2013-09-27 20:07:00,
2013-09-27 16:12:00,77.6,56.4,30.07,East,96,2.0,7.0,48,0.00,,,0.00,519,Wunderground v.1.15,2013-09-27 20:12:00,
2013-09-27 16:17:00,77.5,56.3,30.07,ESE,121,1.0,7.0,48,0.00,,,0.00,543,Wunderground v.1.15,2013-09-27 20:17:00,
2013-09-27 16:22:00,78.5,56.6,30.07,SE,145,0.0,3.0,47,0.00,,,0.00,533,Wunderground v.1.15,2013-09-27 20:22:00,
2013-09-27 16:27:00,78.5,56.6,30.07,ESE,106,0.0,3.0,47,0.00,,,0.00,499,Wunderground v.1.15,2013-09-27 20:27:00,
2013-09-27 16:32:00,77.6,55.8,30.07,ESE,107,0.0,3.0,47,0.00,,,0.00,487,Wunderground v.1.15,2013-09-27 20:32:00,
2013-09-27 16:37:00,77.5,56.3,30.07,ESE,107,0.0,3.0,48,0.00,,,0.00,482,Wunderground v.1.15,2013-09-27 20:37:00,
2013-09-27 16:42:00,77.5,56.8,30.07,ESE,121,1.0,5.0,49,0.00,,,0.00,476,Wunderground v.1.15,2013-09-27 20:42:00,
2013-09-27 16:47:00,77.8,57.1,30.07,East,81,3.0,5.0,49,0.00,,,0.00,464,Wunderground v.1.15,2013-09-27 20:47:00,
2013-09-27 16:52:00,77.7,57.0,30.07,ESE,109,4.0,6.0,49,0.00,,,0.00,445,Wunderground v.1.15,2013-09-27 20:52:00,
2013-09-27 16:57:00,77.5,57.4,30.07,ESE,119,2.0,6.0,50,0.00,,,0.00,415,Wunderground v.1.15,2013-09-27 20:57:00,
2013-09-27 17:02:00,77.6,56.4,30.06,ENE,76,2.0,3.0,48,0.00,,,0.00,411,Wunderground v.1.15,2013-09-27 21:02:00,
2013-09-27 17:07:00,77.5,56.8,30.06,ENE,61,4.0,7.0,49,0.00,,,0.00,406,Wunderground v.1.15,2013-09-27 21:07:00,
2013-09-27 17:12:00,77.5,56.8,30.06,East,95,3.0,6.0,49,0.00,,,0.00,387,Wunderground v.1.15,2013-09-27 21:12:00,
2013-09-27 17:17:00,77.8,56.5,30.06,ENE,61,0.0,6.0,48,0.00,,,0.00,373,Wunderground v.1.15,2013-09-27 21:17:00,
2013-09-27 17:22:00,77.6,56.9,30.06,ESE,104,2.0,7.0,49,0.00,,,0.00,359,Wunderground v.1.15,2013-09-27 21:22:00,
2013-09-27 17:27:00,77.6,56.9,30.06,ENE,63,3.0,7.0,49,0.00,,,0.00,330,Wunderground v.1.15,2013-09-27 21:27:00,
2013-09-27 17:32:00,77.4,56.7,30.06,NE,44,5.0,6.0,49,0.00,,,0.00,308,Wunderground v.1.15,2013-09-27 21:32:00,
2013-09-27 17:37:00,77.9,57.2,30.06,North,5,0.0,6.0,49,0.00,,,0.00,299,Wunderground v.1.15,2013-09-27 21:37:00,
2013-09-27 17:42:00,77.9,57.2,30.06,ENE,73,2.0,6.0,49,0.00,,,0.00,225,Wunderground v.1.15,2013-09-27 21:42:00,
2013-09-27 17:47:00,77.3,56.6,30.07,East,92,5.0,7.0,49,0.00,,,0.00,213,Wunderground v.1.15,2013-09-27 21:47:00,
2013-09-27 17:52:00,76.8,56.2,30.07,ESE,103,0.0,8.0,49,0.00,,,0.00,197,Wunderground v.1.15,2013-09-27 21:52:00,
2013-09-27 17:57:00,76.9,56.8,30.07,East,84,2.0,8.0,50,0.00,,,0.00,183,Wunderground v.1.15,2013-09-27 21:57:00,
2013-09-27 18:02:00,76.9,55.1,30.07,ENE,68,3.0,7.0,47,0.00,,,0.00,139,Wunderground v.1.15,2013-09-27 22:02:00,
2013-09-27 18:07:00,76.7,55.5,30.07,ENE,57,2.0,7.0,48,0.00,,,0.00,79,Wunderground v.1.15,2013-09-27 22:07:00,
2013-09-27 18:12:00,76.5,55.3,30.07,ENE,67,2.0,6.0,48,0.00,,,0.00,113,Wunderground v.1.15,2013-09-27 22:12:00,
2013-09-27 18:18:00,76.4,56.4,30.07,East,79,2.0,6.0,50,0.00,,,0.00,132,Wunderground v.1.15,2013-09-27 22:18:00,
2013-09-27 18:23:00,76.3,55.2,30.07,East,79,3.0,5.0,48,0.00,,,0.00,144,Wunderground v.1.15,2013-09-27 22:23:00,
2013-09-27 18:27:00,76.3,55.7,30.07,East,79,2.0,5.0,49,0.00,,,0.00,127,Wunderground v.1.15,2013-09-27 22:27:00,
2013-09-27 18:32:00,76.4,55.3,30.07,ENE,76,2.0,5.0,48,0.00,,,0.00,114,Wunderground v.1.15,2013-09-27 22:32:00,
2013-09-27 18:37:00,76.3,54.6,30.07,ENE,74,1.0,5.0,47,0.00,,,0.00,100,Wunderground v.1.15,2013-09-27 22:37:00,
2013-09-27 18:42:00,76.2,54.5,30.07,ENE,74,2.0,3.0,47,0.00,,,0.00,81,Wunderground v.1.15,2013-09-27 22:42:00,
2013-09-27 18:48:00,76.1,55.0,30.07,East,92,1.0,6.0,48,0.00,,,0.00,63,Wunderground v.1.15,2013-09-27 22:48:00,
2013-09-27 18:53:00,76.0,54.9,30.07,East,92,1.0,3.0,48,0.00,,,0.00,49,Wunderground v.1.15,2013-09-27 22:53:00,
2013-09-27 18:58:00,75.8,54.7,30.07,East,83,1.0,2.0,48,0.00,,,0.00,39,Wunderground v.1.15,2013-09-27 22:58:00,
2013-09-27 19:03:00,75.6,54.5,30.07,East,85,2.0,3.0,48,0.00,,,0.00,30,Wunderground v.1.15,2013-09-27 23:03:00,
2013-09-27 19:08:00,75.4,54.3,30.07,East,85,2.0,2.0,48,0.00,,,0.00,23,Wunderground v.1.15,2013-09-27 23:08:00,
2013-09-27 19:13:00,75.1,53.5,30.07,East,85,3.0,5.0,47,0.00,,,0.00,18,Wunderground v.1.15,2013-09-27 23:13:00,
2013-09-27 19:18:00,74.8,53.8,30.07,East,85,1.0,2.0,48,0.00,,,0.00,12,Wunderground v.1.15,2013-09-27 23:18:00,
2013-09-27 19:23:00,74.2,54.4,30.07,East,85,0.0,2.0,50,0.00,,,0.00,9,Wunderground v.1.15,2013-09-27 23:23:00,
2013-09-27 19:28:00,73.9,55.2,30.07,East,85,0.0,1.0,52,0.00,,,0.00,7,Wunderground v.1.15,2013-09-27 23:28:00,
2013-09-27 19:33:00,73.6,54.9,30.07,East,85,0.0,1.0,52,0.00,,,0.00,0,Wunderground v.1.15,2013-09-27 23:33:00,
2013-09-27 19:38:00,73.2,55.6,30.07,East,85,0.0,1.0,54,0.00,,,0.00,0,Wunderground v.1.15,2013-09-27 23:38:00,
2013-09-27 19:43:00,72.1,56.0,30.07,East,85,0.0,0.0,57,0.00,,,0.00,0,Wunderground v.1.15,2013-09-27 23:43:00,
2013-09-27 19:48:00,71.4,56.3,30.07,East,85,0.0,0.0,59,0.00,,,0.00,0,Wunderground v.1.15,2013-09-27 23:48:00,
2013-09-27 19:53:00,70.9,56.3,30.07,East,85,0.0,0.0,60,0.00,,,0.00,0,Wunderground v.1.15,2013-09-27 23:53:00,
2013-09-27 19:58:00,70.5,55.9,30.07,East,85,0.0,0.0,60,0.00,,,0.00,0,Wunderground v.1.15,2013-09-27 23:58:00,
2013-09-27 20:03:00,70.3,55.8,30.07,East,85,0.0,0.0,60,0.00,,,0.00,0,Wunderground v.1.15,2013-09-28 00:03:00,
2013-09-27 20:08:00,69.8,56.2,30.07,East,85,0.0,0.0,62,0.00,,,0.00,0,Wunderground v.1.15,2013-09-28 00:08:00,
2013-09-27 20:13:00,69.5,56.3,30.07,East,85,0.0,0.0,63,0.00,,,0.00,0,Wunderground v.1.15,2013-09-28 00:13:00,
2013-09-27 20:18:00,69.1,56.4,30.07,East,85,0.0,0.0,64,0.00,,,0.00,0,Wunderground v.1.15,2013-09-28 00:18:00,
2013-09-27 20:23:00,68.9,56.6,30.07,East,85,0.0,0.0,65,0.00,,,0.00,0,Wunderground v.1.15,2013-09-28 00:23:00,
2013-09-27 20:28:00,68.7,56.5,30.07,East,85,0.0,0.0,65,0.00,,,0.00,0,Wunderground v.1.15,2013-09-28 00:28:00,
2013-09-27 20:33:00,68.3,56.9,30.07,East,85,0.0,0.0,67,0.00,,,0.00,0,Wunderground v.1.15,2013-09-28 00:33:00,
2013-09-27 20:38:00,68.1,57.1,30.07,East,85,0.0,0.0,68,0.00,,,0.00,0,Wunderground v.1.15,2013-09-28 00:38:00,
2013-09-27 20:43:00,67.8,56.9,30.07,East,85,0.0,0.0,68,0.00,,,0.00,0,Wunderground v.1.15,2013-09-28 00:43:00,
2013-09-27 20:48:00,67.2,57.1,30.08,East,85,0.0,0.0,70,0.00,,,0.00,0,Wunderground v.1.15,2013-09-28 00:48:00,
2013-09-27 20:53:00,67.0,56.9,30.08,East,85,0.0,0.0,70,0.00,,,0.00,0,Wunderground v.1.15,2013-09-28 00:53:00,
2013-09-27 20:58:00,66.4,56.7,30.08,East,85,0.0,0.0,71,0.00,,,0.00,0,Wunderground v.1.15,2013-09-28 00:58:00,
2013-09-27 21:03:00,65.8,56.9,30.08,East,85,0.0,0.0,73,0.00,,,0.00,0,Wunderground v.1.15,2013-09-28 01:03:00,
2013-09-27 21:08:00,65.8,56.9,30.08,East,85,0.0,0.0,73,0.00,,,0.00,0,Wunderground v.1.15,2013-09-28 01:08:00,
2013-09-27 21:13:00,65.8,56.9,30.08,East,85,0.0,0.0,73,0.00,,,0.00,0,Wunderground v.1.15,2013-09-28 01:13:00,
2013-09-27 21:18:00,65.4,56.9,30.08,East,85,0.0,0.0,74,0.00,,,0.00,0,Wunderground v.1.15,2013-09-28 01:18:00,
2013-09-27 21:23:00,64.8,56.7,30.08,East,85,0.0,0.0,75,0.00,,,0.00,0,Wunderground v.1.15,2013-09-28 01:23:00,
2013-09-27 21:28:00,64.4,56.7,30.08,SSE,150,1.0,2.0,76,0.00,,,0.00,0,Wunderground v.1.15,2013-09-28 01:28:00,
2013-09-27 21:33:00,63.8,56.4,30.09,South,188,1.0,3.0,77,0.00,,,0.00,0,Wunderground v.1.15,2013-09-28 01:33:00,
2013-09-27 21:38:00,63.3,56.7,30.09,South,188,0.0,1.0,79,0.00,,,0.00,0,Wunderground v.1.15,2013-09-28 01:38:00,
2013-09-27 21:43:00,62.9,56.6,30.09,South,188,0.0,1.0,80,0.00,,,0.00,0,Wunderground v.1.15,2013-09-28 01:43:00,
2013-09-27 21:48:00,63.2,56.6,30.09,South,188,0.0,0.0,79,0.00,,,0.00,0,Wunderground v.1.15,2013-09-28 01:48:00,
2013-09-27 21:53:00,63.5,56.5,30.09,South,188,0.0,0.0,78,0.00,,,0.00,0,Wunderground v.1.15,2013-09-28 01:53:00,
2013-09-27 21:58:00,63.6,55.9,30.09,South,188,0.0,0.0,76,0.00,,,0.00,0,Wunderground v.1.15,2013-09-28 01:58:00,
2013-09-27 22:03:00,64.0,55.9,30.09,South,188,0.0,0.0,75,0.00,,,0.00,0,Wunderground v.1.15,2013-09-28 02:03:00,
2013-09-27 22:08:00,63.9,56.2,30.09,South,188,0.0,0.0,76,0.00,,,0.00,0,Wunderground v.1.15,2013-09-28 02:08:00,
2013-09-27 22:13:00,63.2,56.2,30.09,South,188,0.0,0.0,78,0.00,,,0.00,0,Wunderground v.1.15,2013-09-28 02:13:00,
2013-09-27 22:18:00,62.6,56.3,30.09,South,188,0.0,0.0,80,0.00,,,0.00,0,Wunderground v.1.15,2013-09-28 02:18:00,
2013-09-27 22:23:00,62.7,56.1,30.10,South,188,0.0,0.0,79,0.00,,,0.00,0,Wunderground v.1.15,2013-09-28 02:23:00,
2013-09-27 22:28:00,62.5,56.2,30.10,South,188,0.0,0.0,80,0.00,,,0.00,0,Wunderground v.1.15,2013-09-28 02:28:00,
2013-09-27 22:33:00,62.2,55.6,30.10,SE,137,1.0,2.0,79,0.00,,,0.00,0,Wunderground v.1.15,2013-09-28 02:33:00,
2013-09-27 22:38:00,61.7,55.8,30.10,SE,134,1.0,1.0,81,0.00,,,0.00,0,Wunderground v.1.15,2013-09-28 02:38:00,
2013-09-27 22:43:00,61.3,55.4,30.10,SE,134,0.0,1.0,81,0.00,,,0.00,0,Wunderground v.1.15,2013-09-28 02:43:00,
2013-09-27 22:48:00,60.8,55.3,30.10,SE,134,0.0,0.0,82,0.00,,,0.00,0,Wunderground v.1.15,2013-09-28 02:48:00,
2013-09-27 22:53:00,60.4,55.5,30.10,SE,134,0.0,0.0,84,0.00,,,0.00,0,Wunderground v.1.15,2013-09-28 02:53:00,
2013-09-27 22:58:00,60.2,55.3,30.10,SE,134,0.0,0.0,84,0.00,,,0.00,0,Wunderground v.1.15,2013-09-28 02:58:00,
2013-09-27 23:03:00,59.8,55.3,30.10,SE,134,0.0,0.0,85,0.00,,,0.00,0,Wunderground v.1.15,2013-09-28 03:03:00,
2013-09-27 23:08:00,59.9,55.4,30.10,SE,134,0.0,0.0,85,0.00,,,0.00,0,Wunderground v.1.15,2013-09-28 03:08:00,
2013-09-27 23:13:00,60.2,55.3,30.10,SE,134,0.0,0.0,84,0.00,,,0.00,0,Wunderground v.1.15,2013-09-28 03:13:00,
2013-09-27 23:18:00,60.1,55.2,30.10,SE,134,0.0,0.0,84,0.00,,,0.00,0,Wunderground v.1.15,2013-09-28 03:18:00,
2013-09-27 23:23:00,59.4,55.2,30.10,SE,134,0.0,0.0,86,0.00,,,0.00,0,Wunderground v.1.15,2013-09-28 03:23:00,
2013-09-27 23:28:00,59.4,55.2,30.10,SE,134,0.0,0.0,86,0.00,,,0.00,0,Wunderground v.1.15,2013-09-28 03:28:00,
2013-09-27 23:33:00,59.5,55.6,30.10,SE,134,0.0,0.0,87,0.00,,,0.00,0,Wunderground v.1.15,2013-09-28 03:33:00,
2013-09-27 23:38:00,59.4,55.2,30.10,SE,134,0.0,0.0,86,0.00,,,0.00,0,Wunderground v.1.15,2013-09-28 03:38:00,
2013-09-27 23:43:00,59.3,55.4,30.10,SE,134,0.0,0.0,87,0.00,,,0.00,0,Wunderground v.1.15,2013-09-28 03:43:00,
2013-09-27 23:48:00,59.3,55.4,30.10,SE,134,0.0,0.0,87,0.00,,,0.00,0,Wunderground v.1.15,2013-09-28 03:48:00,
2013-09-27 23:53:00,59.1,55.2,30.10,SE,134,0.0,0.0,87,0.00,,,0.00,0,Wunderground v.1.15,2013-09-28 03:53:00,
2013-09-27 23:58:00,58.9,55.0,30.09,SE,134,0.0,0.0,87,0.00,,,0.00,0,Wunderground v.1.15,2013-09-28 03:58:00,